ADDS TAF Board (Experimental) INFO Settings
IDs: Format: Expanded Condensed

KBWI - Baltimore-Washington, MD, US

Issued at 0520 UTC 30 Apr 2016
Updated at: 0709 UTC 30 Apr 2016
Time0654Z 30/08Z 30/09Z 30/10Z 30/11Z 30/12Z 30/13Z 30/14Z 30/15Z 30/16Z 30/17Z 30/18Z 30/19Z 30/20Z
Type OBS PRVL PRVL PRVL PRVL PRVL PRVL PRVL PRVL PRVL PRVL PRVL PRVL PRVL
VIS 6 5 5 5 5 >6 >6 >6 >6 >6 >6 >6 >6 >6
CIG 8 8 8 8 8 8 8 15 15 15 25 25 25 25
Cover OVC OVC OVC OVC OVC OVC OVC BKN BKN BKN BKN BKN BKN BKN
FltCat IFR IFR IFR IFR IFR IFR IFR MVFR MVFR MVFR MVFR MVFR MVFR MVFR
WX BR -DZ BR -DZ BR -DZ BR -DZ BR -- -- -- -- -- -- -- -- --
WDir 40 60 60 60 60 60 60 70 70 70 100 100 100 100
WSpd 6 5 5 5 5 6 6 5 5 5 6 6 6 6
WGst -- -- -- -- -- -- -- -- -- -- -- -- -- --
R04/22
XWnd -1 -2 -2 -2 -2 -3 -3 -3 -3 -3 -6 -6 -6 -6
HWnd 6 4 4 4 4 5 5 4 4 4 2 2 2 2
R10/28
XWnd 5 3 3 3 3 3 3 2 2 2 -1 -1 -1 -1
HWnd 4 4 4 4 4 5 5 5 5 5 6 6 6 6
R15/33
XWnd 6 5 5 5 5 6 6 5 5 5 4 4 4 4
HWnd -1 1 1 1 1 1 1 1 1 1 4 4 4 4

NOTE: TEMPO conditions in [brackets]. Keep in mind TEMPO conditions might be better (lower impact) than prevailing conditions.

Raw TAF
KBWI 300520Z 3006/0112 06005KT 5SM -DZ BR OVC008
  FM301200 06006KT P6SM OVC008
  FM301400 07005KT P6SM BKN015
  FM301700 10006KT P6SM BKN025
  FM302100 12006KT P6SM BKN040
  FM010000 12007KT P6SM OVC025
  FM010400 12008KT 5SM -RA BR OVC010
  FM010600 12008KT 3SM RA BR OVC010


Raw METAR
KBWI 300654Z 04006KT 6SM BR OVC008 10/08 A3012 RMK AO2 SLP199 T01000083
KBWI 300554Z 04005KT 6SM BR OVC009 10/09 A3012 RMK AO2 SLP201 60000 T01000089 10106 20100 50005
KBWI 300454Z 06006KT 4SM BR OVC006 10/09 A3013 RMK AO2 DZE53 SLP202 P0000 T01000089 401170078

METAR Board
Radar Display
Forecast Discussion

TAF Board Legend

Potential Impact
Threat None Slight Moderate High
Visibility (sm) ≥5.1 5.1>X≥3 3>X≥1 <1
Ceiling (100 ft) ≥30.1 30.1>X≥10 10>X≥5 <5
Wind Speed (kt) <10 10≤X<20 20≤X<30 ≥30
Wind Gust (kt) <15 15≤X<25 25≤X<35 ≥35
Weather No Wx Reported VCTS,-TS,-FZRA,SN TS,FZRA +TS,+FZRA,+SN